createdAt,value
2022-09-15T00:02:26.949Z,2.07
2022-09-15T00:04:58.309Z,2.60
2022-09-15T00:07:31.364Z,2.50
2022-09-15T00:10:05.313Z,2.43
2022-09-15T00:12:36.767Z,2.20
2022-09-15T00:15:08.509Z,2.07
2022-09-15T00:17:40.377Z,2.17
2022-09-15T00:20:11.845Z,2.63
2022-09-15T00:22:43.923Z,2.43
2022-09-15T00:25:15.600Z,2.20
2022-09-15T00:27:47.133Z,2.20
2022-09-15T00:30:18.544Z,3.30
2022-09-15T00:32:49.912Z,3.50
2022-09-15T00:35:21.293Z,2.17
2022-09-15T00:37:52.610Z,2.00
2022-09-15T00:40:24.055Z,2.27
2022-09-15T00:42:55.455Z,2.17
2022-09-15T00:45:27.362Z,2.53
2022-09-15T00:48:01.063Z,2.33
2022-09-15T00:50:34.538Z,2.83
2022-09-15T00:53:09.036Z,1.93
2022-09-15T00:55:48.013Z,1.83
2022-09-15T00:58:29.171Z,2.30
2022-09-15T01:01:03.932Z,2.10
2022-09-15T01:03:36.590Z,2.00
2022-09-15T01:06:20.722Z,2.13
2022-09-15T01:09:02.052Z,2.10
2022-09-15T01:11:34.257Z,2.37
2022-09-15T01:14:05.754Z,2.40
2022-09-15T01:16:40.414Z,1.90
2022-09-15T01:19:43.282Z,2.30
2022-09-15T01:22:32.844Z,2.20
2022-09-15T01:25:43.147Z,2.57
2022-09-15T01:28:44.378Z,2.00
2022-09-15T01:31:59.979Z,1.77
2022-09-15T01:34:43.790Z,1.77
2022-09-15T01:37:20.959Z,1.90
2022-09-15T01:39:54.347Z,2.23
2022-09-15T01:42:27.895Z,1.80
2022-09-15T01:45:06.382Z,2.20
2022-09-15T01:47:39.314Z,2.40
2022-09-15T01:50:18.289Z,2.83
2022-09-15T01:52:53.655Z,2.13
2022-09-15T01:55:32.324Z,2.63
2022-09-15T01:58:04.396Z,2.00
2022-09-15T02:00:41.482Z,2.27
2022-09-15T02:03:26.764Z,2.43
2022-09-15T02:06:07.118Z,1.90
2022-09-15T02:08:47.677Z,2.17
2022-09-15T02:11:23.924Z,1.93
2022-09-15T02:14:11.246Z,2.47
2022-09-15T02:16:49.819Z,2.10
2022-09-15T02:19:39.707Z,2.17
2022-09-15T02:22:27.066Z,2.57
2022-09-15T02:25:32.822Z,2.00
2022-09-15T02:28:07.208Z,1.80
2022-09-15T02:30:42.616Z,2.30
2022-09-15T02:33:19.738Z,2.17
2022-09-15T02:35:52.267Z,2.57
2022-09-15T02:38:30.053Z,2.40
2022-09-15T02:41:02.601Z,1.80
2022-09-15T02:43:34.150Z,2.00
2022-09-15T02:46:05.669Z,2.40
2022-09-15T02:48:36.997Z,2.00
2022-09-15T02:51:08.339Z,2.33
2022-09-15T02:53:41.083Z,2.37
2022-09-15T02:56:13.547Z,2.30
2022-09-15T02:58:44.853Z,1.90
2022-09-15T03:01:17.643Z,2.10
2022-09-15T03:03:48.995Z,3.03
2022-09-15T03:06:21.353Z,1.73
2022-09-15T03:08:58.455Z,2.13
2022-09-15T03:11:30.696Z,1.93
2022-09-15T03:14:06.824Z,1.97
2022-09-15T03:16:39.240Z,2.10
2022-09-15T03:19:10.616Z,2.00
2022-09-15T03:21:42.017Z,2.90
2022-09-15T03:24:15.279Z,2.17
2022-09-15T03:26:46.746Z,2.23
2022-09-15T03:29:18.152Z,2.87
2022-09-15T03:31:49.787Z,2.63
2022-09-15T03:34:21.199Z,2.37
2022-09-15T03:36:52.665Z,2.63
2022-09-15T03:39:25.092Z,2.60
2022-09-15T03:41:57.142Z,2.90
2022-09-15T03:44:28.782Z,2.70
2022-09-15T03:47:00.145Z,2.67
2022-09-15T03:49:32.624Z,2.80
2022-09-15T03:52:04.177Z,2.97
2022-09-15T03:54:35.620Z,3.20
2022-09-15T03:57:07.178Z,2.90
2022-09-15T03:59:39.658Z,3.20
2022-09-15T04:02:11.252Z,3.03
2022-09-15T04:04:42.632Z,2.33
2022-09-15T04:07:13.981Z,2.80
2022-09-15T04:09:45.976Z,3.27
2022-09-15T04:12:17.614Z,2.80
2022-09-15T04:14:55.466Z,2.93
2022-09-15T04:17:27.485Z,2.93
2022-09-15T04:19:58.857Z,2.80
2022-09-15T04:22:31.977Z,2.70
2022-09-15T04:25:03.807Z,2.57
2022-09-15T04:27:36.293Z,3.60
2022-09-15T04:30:08.462Z,3.10
2022-09-15T04:32:40.003Z,3.00
2022-09-15T04:35:12.169Z,2.97
2022-09-15T04:37:43.538Z,3.30
2022-09-15T04:40:16.772Z,2.97
2022-09-15T04:42:56.054Z,3.93
2022-09-15T04:45:34.384Z,3.60
2022-09-15T04:48:06.418Z,3.60
2022-09-15T04:50:37.759Z,3.90
2022-09-15T04:53:09.342Z,3.67
2022-09-15T04:55:40.808Z,3.40
2022-09-15T04:58:12.220Z,4.27
2022-09-15T05:00:43.854Z,4.13
2022-09-15T05:03:15.265Z,3.90
2022-09-15T05:05:47.573Z,4.70
2022-09-15T05:08:19.485Z,5.57
2022-09-15T05:10:50.946Z,4.90
2022-09-15T05:13:23.373Z,4.47
2022-09-15T05:15:54.792Z,4.77
2022-09-15T05:18:26.136Z,5.60
2022-09-15T05:21:01.498Z,4.70
2022-09-15T05:23:36.933Z,4.28
2022-09-15T05:26:12.731Z,4.30
2022-09-15T05:28:44.865Z,3.65
2022-09-15T05:31:22.363Z,4.33
2022-09-15T05:33:54.506Z,4.47
2022-09-15T05:36:25.921Z,4.47
2022-09-15T05:38:58.110Z,4.53
2022-09-15T05:41:29.937Z,4.17
2022-09-15T05:44:01.476Z,3.80
2022-09-15T05:46:32.996Z,4.47
2022-09-15T05:49:04.443Z,3.70
2022-09-15T05:51:36.289Z,4.27
2022-09-15T05:54:07.670Z,3.60
2022-09-15T05:56:39.072Z,3.17
2022-09-15T05:59:10.441Z,3.70
2022-09-15T06:01:41.846Z,3.50
2022-09-15T06:04:13.263Z,3.20
2022-09-15T06:06:44.605Z,3.13
2022-09-15T06:09:15.924Z,3.63
2022-09-15T06:11:47.359Z,3.37
2022-09-15T06:14:18.712Z,3.57
2022-09-15T06:16:50.126Z,2.60
2022-09-15T06:19:21.577Z,2.93
2022-09-15T06:21:53.887Z,2.37
2022-09-15T06:24:25.233Z,2.43
2022-09-15T06:26:56.661Z,2.20
2022-09-15T06:29:29.009Z,2.67
2022-09-15T06:32:02.758Z,2.47
2022-09-15T06:34:34.982Z,1.93
2022-09-15T06:37:06.453Z,2.23
2022-09-15T06:39:37.814Z,1.80
2022-09-15T06:42:13.332Z,1.33
2022-09-15T06:47:16.620Z,1.17
2022-09-15T06:49:48.034Z,2.37
2022-09-15T06:52:19.346Z,1.30
2022-09-15T06:54:50.686Z,1.70
2022-09-15T06:57:22.039Z,1.93
2022-09-15T06:59:53.665Z,1.00
2022-09-15T07:02:25.104Z,1.40
2022-09-15T07:04:56.577Z,1.27
2022-09-15T07:07:27.847Z,1.60
2022-09-15T07:10:00.842Z,0.97
2022-09-15T07:12:32.472Z,2.37
2022-09-15T07:15:04.180Z,0.90
2022-09-15T07:17:37.289Z,1.13
2022-09-15T07:20:09.446Z,0.87
2022-09-15T07:22:41.093Z,1.07
2022-09-15T07:25:12.584Z,1.00
2022-09-15T07:27:44.132Z,0.63
2022-09-15T07:30:16.692Z,1.00
2022-09-15T07:32:48.123Z,1.10
2022-09-15T07:35:21.727Z,1.10
2022-09-15T07:37:53.164Z,0.90
2022-09-15T07:40:24.703Z,0.90
2022-09-15T07:42:57.323Z,1.57
2022-09-15T07:45:28.694Z,1.00
2022-09-15T07:48:00.238Z,1.20
2022-09-15T07:50:31.520Z,0.60
2022-09-15T07:53:03.521Z,0.80
2022-09-15T07:55:34.839Z,0.90
2022-09-15T07:58:06.133Z,0.90
2022-09-15T08:00:39.579Z,0.90
2022-09-15T08:03:12.483Z,1.13
2022-09-15T08:05:45.769Z,1.40
2022-09-15T08:08:17.462Z,0.90
2022-09-15T08:10:48.924Z,0.83
2022-09-15T08:13:20.612Z,1.10
2022-09-15T08:15:53.026Z,1.00
2022-09-15T08:18:24.471Z,1.40
2022-09-15T08:20:55.846Z,0.90
2022-09-15T08:23:27.366Z,1.10
2022-09-15T08:25:59.236Z,1.20
2022-09-15T08:28:30.559Z,0.97
2022-09-15T08:31:06.766Z,1.30
2022-09-15T08:33:41.975Z,1.17
2022-09-15T08:36:16.191Z,1.67
2022-09-15T08:38:48.087Z,1.00
2022-09-15T08:41:42.556Z,1.00
2022-09-15T08:44:45.399Z,1.13
2022-09-15T08:47:23.696Z,1.47
2022-09-15T08:50:03.479Z,1.40
2022-09-15T08:52:50.870Z,1.10
2022-09-15T08:55:41.509Z,1.17
2022-09-15T08:58:18.782Z,1.87
2022-09-15T09:00:55.651Z,1.23
2022-09-15T09:04:01.764Z,1.27
2022-09-15T09:06:41.170Z,0.93
2022-09-15T09:09:36.869Z,1.23
2022-09-15T09:12:32.994Z,0.82
2022-09-15T09:15:33.787Z,0.90
2022-09-15T09:18:29.659Z,0.73
2022-09-15T09:21:19.923Z,1.58
2022-09-15T09:24:04.000Z,1.15
2022-09-15T09:26:36.679Z,0.70
2022-09-15T09:29:17.016Z,0.60
2022-09-15T09:31:50.694Z,0.95
2022-09-15T09:34:45.812Z,1.13
2022-09-15T09:37:17.364Z,1.00
2022-09-15T09:39:48.912Z,1.30
2022-09-15T09:42:26.625Z,0.82
2022-09-15T09:44:58.120Z,0.70
2022-09-15T09:47:29.854Z,0.85
2022-09-15T09:50:01.217Z,0.82
2022-09-15T09:52:34.253Z,0.73
2022-09-15T09:55:27.082Z,1.10
2022-09-15T09:58:14.442Z,0.70
2022-09-15T10:00:46.356Z,1.13
2022-09-15T10:03:30.656Z,0.65
2022-09-15T10:08:51.883Z,0.77
2022-09-15T10:11:48.649Z,0.85
2022-09-15T10:14:28.964Z,0.88
2022-09-15T10:17:06.053Z,0.60
2022-09-15T10:19:54.240Z,0.60
2022-09-15T10:22:38.506Z,0.60
2022-09-15T10:25:21.973Z,0.65
2022-09-15T10:28:02.418Z,0.80
2022-09-15T10:30:34.748Z,0.73
2022-09-15T10:33:22.919Z,0.88
2022-09-15T10:35:59.679Z,0.40
2022-09-15T10:38:34.803Z,0.60
2022-09-15T10:41:28.267Z,0.52
2022-09-15T10:44:22.771Z,1.40
2022-09-15T10:47:12.380Z,0.70
2022-09-15T10:50:00.573Z,0.43
2022-09-15T10:52:38.014Z,0.60
2022-09-15T10:55:48.896Z,0.73
2022-09-15T10:58:45.633Z,0.67
2022-09-15T11:01:26.247Z,0.70
2022-09-15T11:04:08.022Z,0.77
2022-09-15T11:06:53.538Z,0.80
2022-09-15T11:09:34.743Z,0.90
2022-09-15T11:12:30.879Z,0.73
2022-09-15T11:15:30.305Z,0.60
2022-09-15T11:18:11.181Z,1.03
2022-09-15T11:21:07.126Z,0.80
2022-09-15T11:24:10.973Z,1.37
2022-09-15T11:26:52.716Z,0.90
2022-09-15T11:29:37.659Z,0.80
2022-09-15T11:32:15.160Z,0.80
2022-09-15T11:34:56.839Z,0.90
2022-09-15T11:37:39.063Z,0.93
2022-09-15T11:40:36.045Z,0.75
2022-09-15T11:43:37.704Z,0.93
2022-09-15T11:46:15.032Z,0.70
2022-09-15T11:49:02.790Z,1.05
2022-09-15T11:51:42.879Z,0.60
2022-09-15T11:54:23.031Z,0.60
2022-09-15T11:56:56.332Z,0.82
2022-09-15T11:59:54.720Z,1.00
2022-09-15T12:02:34.665Z,0.70
2022-09-15T12:05:15.159Z,0.60
2022-09-15T12:08:12.737Z,0.63
2022-09-15T12:10:48.949Z,1.33
2022-09-15T12:13:24.093Z,0.90
2022-09-15T12:15:57.450Z,0.40
2022-09-15T12:18:55.228Z,0.70
2022-09-15T12:21:35.857Z,0.70
2022-09-15T12:24:17.472Z,0.90
2022-09-15T12:26:49.397Z,0.70
2022-09-15T12:29:26.956Z,0.60
2022-09-15T12:32:18.078Z,1.23
2022-09-15T12:35:01.744Z,0.80
2022-09-15T12:37:44.191Z,0.87
2022-09-15T12:40:33.384Z,0.70
2022-09-15T12:43:11.251Z,1.00
2022-09-15T12:45:54.574Z,0.40
2022-09-15T12:48:31.377Z,0.50
2022-09-15T12:51:10.401Z,0.50
2022-09-15T12:53:56.032Z,0.50
2022-09-15T12:56:31.195Z,0.88
2022-09-15T12:59:06.812Z,0.73
2022-09-15T13:04:44.285Z,0.97
2022-09-15T13:07:15.650Z,0.70
2022-09-15T13:10:27.025Z,0.52
2022-09-15T13:13:10.858Z,0.68
2022-09-15T13:15:50.141Z,1.10
2022-09-15T13:18:23.423Z,0.82
2022-09-15T13:21:05.259Z,0.93
2022-09-15T13:23:41.364Z,1.20
2022-09-15T13:26:17.710Z,0.70
2022-09-15T13:28:54.099Z,0.68
2022-09-15T13:31:37.587Z,0.70
2022-09-15T13:35:04.034Z,1.10
2022-09-15T13:38:21.724Z,0.50
2022-09-15T13:41:16.352Z,0.70
2022-09-15T13:44:00.967Z,0.63
2022-09-15T13:46:40.973Z,0.57
2022-09-15T13:49:38.735Z,0.43
2022-09-15T13:52:19.312Z,0.50
2022-09-15T13:55:21.526Z,0.60
2022-09-15T14:00:58.757Z,1.00
2022-09-15T14:03:39.680Z,0.83
2022-09-15T14:06:17.894Z,0.70
2022-09-15T14:08:54.961Z,0.97
2022-09-15T14:11:31.437Z,0.70
2022-09-15T14:14:06.694Z,0.60
2022-09-15T14:16:39.206Z,0.80
2022-09-15T14:19:32.327Z,1.17
2022-09-15T14:22:35.329Z,1.10
2022-09-15T14:25:14.121Z,0.90
2022-09-15T14:27:47.998Z,0.67
2022-09-15T14:30:27.614Z,1.07
2022-09-15T14:33:02.784Z,1.03
2022-09-15T14:35:37.143Z,0.80
2022-09-15T14:38:23.289Z,0.80
2022-09-15T14:40:56.812Z,0.60
2022-09-15T14:43:35.437Z,0.80
2022-09-15T14:46:15.270Z,0.80
2022-09-15T14:48:51.026Z,1.20
2022-09-15T14:51:25.603Z,0.90
2022-09-15T14:54:00.615Z,0.68
2022-09-15T14:56:36.039Z,1.10
2022-09-15T14:59:15.210Z,1.40
2022-09-15T15:02:19.647Z,0.90
2022-09-15T15:04:58.543Z,0.60
2022-09-15T15:07:33.267Z,0.70
2022-09-15T15:10:14.609Z,1.42
2022-09-15T15:12:50.322Z,1.02
2022-09-15T15:15:22.510Z,0.80
2022-09-15T15:17:54.734Z,0.90
2022-09-15T15:20:30.217Z,1.15
2022-09-15T15:23:19.664Z,0.95
2022-09-15T15:25:51.638Z,0.75
2022-09-15T15:28:34.583Z,0.88
2022-09-15T15:31:20.866Z,0.80
2022-09-15T15:33:59.443Z,1.08
2022-09-15T15:36:33.135Z,0.77
2022-09-15T15:39:07.871Z,0.70
2022-09-15T15:41:41.972Z,0.60
2022-09-15T15:44:13.405Z,0.90
2022-09-15T15:46:51.556Z,1.10
2022-09-15T15:49:29.063Z,0.73
2022-09-15T15:52:01.662Z,1.20
2022-09-15T15:54:34.205Z,0.80
2022-09-15T15:57:27.140Z,0.70
2022-09-15T16:00:00.559Z,0.70
2022-09-15T16:02:32.067Z,0.70
2022-09-15T16:05:04.802Z,0.80
2022-09-15T16:07:37.472Z,0.77
2022-09-15T16:10:14.602Z,0.80
2022-09-15T16:12:45.946Z,0.90
2022-09-15T16:15:20.357Z,0.83
2022-09-15T16:17:51.680Z,0.80
2022-09-15T16:20:25.054Z,0.80
2022-09-15T16:22:57.298Z,0.77
2022-09-15T16:25:47.959Z,1.40
2022-09-15T16:28:19.999Z,0.80
2022-09-15T16:30:51.393Z,1.30
2022-09-15T16:33:23.420Z,1.00
2022-09-15T16:36:03.663Z,1.50
2022-09-15T16:38:36.089Z,0.80
2022-09-15T16:41:25.721Z,1.07
2022-09-15T16:43:57.109Z,1.30
2022-09-15T16:46:29.139Z,1.53
2022-09-15T16:49:01.605Z,0.80
2022-09-15T16:51:32.911Z,0.80
2022-09-15T16:54:13.779Z,0.87
2022-09-15T16:56:46.075Z,1.30
2022-09-15T16:59:17.804Z,0.80
2022-09-15T17:01:49.199Z,1.40
2022-09-15T17:04:20.868Z,1.50
2022-09-15T17:06:52.162Z,0.90
2022-09-15T17:09:23.573Z,1.00
2022-09-15T17:11:55.560Z,0.67
2022-09-15T17:14:26.912Z,1.10
2022-09-15T17:16:58.248Z,0.80
2022-09-15T17:19:29.522Z,1.00
2022-09-15T17:22:01.545Z,0.60
2022-09-15T17:24:32.846Z,0.93
2022-09-15T17:27:04.239Z,0.90
2022-09-15T17:29:35.633Z,0.67
2022-09-15T17:32:08.817Z,1.13
2022-09-15T17:34:40.084Z,0.70
2022-09-15T17:37:11.640Z,1.17
2022-09-15T17:39:43.169Z,1.00
2022-09-15T17:42:14.448Z,1.40
2022-09-15T17:44:45.799Z,1.10
2022-09-15T17:47:17.165Z,1.00
2022-09-15T17:49:48.565Z,1.53
2022-09-15T17:52:20.014Z,1.83
2022-09-15T17:54:51.378Z,1.20
2022-09-15T17:57:23.000Z,1.10
2022-09-15T17:59:54.280Z,1.10
2022-09-15T18:02:25.662Z,1.20
2022-09-15T18:04:57.337Z,1.27
2022-09-15T18:07:29.343Z,0.90
2022-09-15T18:10:00.975Z,1.47
2022-09-15T18:12:32.320Z,1.33
2022-09-15T18:15:03.982Z,2.17
2022-09-15T18:17:35.379Z,3.00
2022-09-15T18:20:07.123Z,1.93
2022-09-15T18:22:38.457Z,1.13
2022-09-15T18:25:16.629Z,1.20
2022-09-15T18:27:49.265Z,1.10
2022-09-15T18:30:22.605Z,1.13
2022-09-15T18:32:54.134Z,1.00
2022-09-15T18:35:25.857Z,0.70
2022-09-15T18:37:59.567Z,1.10
2022-09-15T18:40:30.870Z,1.07
2022-09-15T18:43:02.293Z,1.20
2022-09-15T18:45:33.752Z,1.17
2022-09-15T18:48:09.163Z,1.13
2022-09-15T18:50:44.449Z,0.77
2022-09-15T18:53:15.791Z,0.80
2022-09-15T18:55:47.530Z,0.60
2022-09-15T18:58:22.600Z,0.90
2022-09-15T19:00:59.417Z,1.40
2022-09-15T19:04:51.236Z,1.00
2022-09-15T19:07:26.320Z,0.87
2022-09-15T19:10:00.574Z,0.70
2022-09-15T19:12:31.930Z,0.77
2022-09-15T19:15:10.867Z,1.00
2022-09-15T19:17:43.772Z,1.10
2022-09-15T19:20:15.711Z,0.90
2022-09-15T19:22:47.455Z,0.93
2022-09-15T19:25:19.460Z,1.30
2022-09-15T19:27:50.794Z,0.80
2022-09-15T19:30:22.395Z,1.00
2022-09-15T19:32:54.435Z,0.80
2022-09-15T19:35:25.910Z,0.70
2022-09-15T19:37:57.174Z,1.10
2022-09-15T19:40:28.486Z,1.00
2022-09-15T19:42:59.911Z,0.90
2022-09-15T19:45:31.267Z,1.80
2022-09-15T19:48:02.882Z,0.70
2022-09-15T19:50:34.154Z,0.80
2022-09-15T19:53:05.473Z,0.90
2022-09-15T19:55:36.773Z,0.73
2022-09-15T19:58:08.093Z,0.97
2022-09-15T20:00:39.366Z,0.80
2022-09-15T20:03:10.651Z,1.00
2022-09-15T20:05:42.147Z,1.17
2022-09-15T20:08:13.462Z,1.10
2022-09-15T20:10:45.906Z,1.33
2022-09-15T20:13:18.301Z,1.33
2022-09-15T20:16:01.897Z,1.07
2022-09-15T20:18:33.578Z,0.90
2022-09-15T20:21:07.650Z,1.00
2022-09-15T20:23:38.960Z,1.07
2022-09-15T20:26:12.365Z,0.63
2022-09-15T20:28:44.201Z,1.00
2022-09-15T20:31:19.083Z,1.03
2022-09-15T20:33:51.851Z,1.07
2022-09-15T20:36:28.472Z,0.60
2022-09-15T20:39:01.131Z,1.70
2022-09-15T20:41:32.448Z,1.20
2022-09-15T20:44:05.147Z,1.30
2022-09-15T20:46:36.616Z,0.90
2022-09-15T20:49:09.252Z,1.10
2022-09-15T20:51:40.639Z,1.30
2022-09-15T20:54:11.986Z,0.90
2022-09-15T20:56:43.290Z,1.27
2022-09-15T20:59:15.096Z,1.13
2022-09-15T21:01:46.639Z,0.80
2022-09-15T21:04:18.563Z,1.40
2022-09-15T21:06:50.119Z,1.40
2022-09-15T21:09:21.380Z,2.20
2022-09-15T21:11:53.707Z,1.40
2022-09-15T21:14:25.217Z,1.30
2022-09-15T21:16:56.486Z,1.67
2022-09-15T21:19:27.800Z,1.20
2022-09-15T21:21:59.361Z,1.60
2022-09-15T21:24:30.612Z,1.30
2022-09-15T21:27:20.395Z,1.47
2022-09-15T21:29:51.696Z,1.60
2022-09-15T21:32:24.243Z,1.43
2022-09-15T21:34:55.788Z,1.30
2022-09-15T21:37:27.813Z,1.20
2022-09-15T21:39:59.480Z,1.50
2022-09-15T21:42:30.752Z,1.63
2022-09-15T21:45:02.079Z,1.50
2022-09-15T21:47:34.113Z,1.40
2022-09-15T21:50:05.868Z,1.43
2022-09-15T21:52:37.278Z,1.80
2022-09-15T21:55:09.039Z,1.40
2022-09-15T21:57:40.316Z,1.47
2022-09-15T22:00:12.525Z,1.60
2022-09-15T22:02:43.793Z,1.80
2022-09-15T22:05:15.170Z,1.50
2022-09-15T22:07:46.437Z,1.80
2022-09-15T22:10:17.712Z,1.50
2022-09-15T22:12:52.098Z,1.23
2022-09-15T22:15:23.982Z,1.30
2022-09-15T22:17:56.469Z,1.50
2022-09-15T22:20:28.253Z,1.37
2022-09-15T22:23:02.582Z,1.20
2022-09-15T22:25:33.944Z,0.97
2022-09-15T22:28:05.196Z,1.40
2022-09-15T22:30:36.467Z,1.10
2022-09-15T22:33:07.720Z,1.53
2022-09-15T22:35:38.987Z,1.73
2022-09-15T22:38:10.344Z,1.67
2022-09-15T22:40:41.638Z,1.77
2022-09-15T22:43:13.038Z,1.40
2022-09-15T22:45:44.394Z,1.00
2022-09-15T22:48:15.730Z,1.27
2022-09-15T22:50:47.076Z,1.27
2022-09-15T22:53:18.600Z,1.20
2022-09-15T22:55:50.546Z,1.20
2022-09-15T22:58:21.801Z,1.70
2022-09-15T23:00:53.175Z,1.70
2022-09-15T23:03:24.501Z,1.27
2022-09-15T23:06:00.152Z,1.57
2022-09-15T23:08:32.768Z,1.98
2022-09-15T23:11:12.785Z,1.90
2022-09-15T23:13:44.045Z,2.60
2022-09-15T23:16:15.946Z,2.40
2022-09-15T23:18:48.203Z,1.70
2022-09-15T23:21:20.419Z,2.13
2022-09-15T23:23:53.998Z,2.17
2022-09-15T23:26:26.634Z,1.53
2022-09-15T23:28:58.006Z,2.40
2022-09-15T23:31:29.318Z,1.70
2022-09-15T23:34:00.592Z,1.77
2022-09-15T23:36:31.962Z,2.20
2022-09-15T23:39:03.562Z,1.50
2022-09-15T23:41:36.632Z,2.37
2022-09-15T23:44:07.957Z,1.77
2022-09-15T23:46:39.267Z,1.50
2022-09-15T23:49:11.409Z,1.17
2022-09-15T23:51:43.921Z,1.10
2022-09-15T23:54:16.034Z,1.57
2022-09-15T23:56:47.297Z,2.00
2022-09-15T23:59:18.716Z,1.50
